Latest Weather Observations for Parndana

IDS60801

Issued at 8:21 pm CDT Sunday 29 March 2020 (issued every 10 minutes, with the page automatically refreshed every 10 minutes)

About weather observations | Map of weather stations | Latest weather observations for SA | Other Formats
Station Details ID: 022843 Name: PARNDANA CFS AWS Lat: -35.79 Lon: 137.25 Height: 165.0 m
Data from the previous 72 hours. | See also: Recent months at Parndana
Date/Time
CDT
Temp
°C
App
Temp
°C
Dew
Point
°C
Rel
Hum
%
Delta-T
°C
Wind Press
QNH
hPa
Press
MSL
hPa
Rain since
9am
mm
Dir  Spd
km/h
Gust
km/h
Spd
kts
Gust
kts
29/08:00pm 17.1 14.0 10.2 64 3.7 WSW 17 24 9 13 - - 0.0
29/07:30pm 16.6 13.4 8.6 59 4.1 W 15 20 8 11 - - 0.0
29/07:00pm 17.8 13.8 8.9 56 4.7 WSW 20 30 11 16 - - 0.0
29/06:30pm 19.3 14.4 8.6 50 5.6 W 24 33 13 18 - - 0.0
29/06:00pm 20.3 14.4 8.9 48 6.1 W 30 37 16 20 - - 0.0
29/05:30pm 21.4 15.9 9.3 46 6.5 W 28 35 15 19 - - 0.0
29/05:00pm 22.5 18.6 9.3 43 7.1 W 20 26 11 14 - - 0.0
29/04:30pm 22.7 18.8 9.5 43 7.2 W 20 32 11 17 - - 0.0
29/04:00pm 22.8 18.2 9.6 43 7.2 W 24 37 13 20 - - 0.0
29/03:30pm 22.7 17.9 8.8 41 7.5 WNW 24 35 13 19 - - 0.0
29/03:00pm 24.0 19.4 9.6 40 7.9 WNW 24 35 13 19 - - 0.0
29/02:30pm 24.4 21.0 10.7 42 7.7 W 19 32 10 17 - - 0.0
29/02:00pm 23.6 19.4 9.9 42 7.5 W 22 33 12 18 - - 0.0
29/01:30pm 23.7 19.9 9.7 41 7.7 W 20 32 11 17 - - 0.0
29/01:00pm 23.4 19.6 9.8 42 7.5 W 20 30 11 16 - - 0.0
29/12:30pm 22.6 18.3 9.4 43 7.2 WSW 22 35 12 19 - - 0.0
29/12:00pm 22.1 18.7 11.2 50 6.1 WSW 20 30 11 16 - - 0.0
29/11:30am 22.1 18.4 11.5 51 6.0 WSW 22 33 12 18 - - 0.0
29/11:00am 21.9 18.3 11.9 53 5.7 WSW 22 30 12 16 - - 0.0
29/10:30am 20.0 17.0 12.0 60 4.5 W 19 26 10 14 - - 0.0
29/10:00am 19.7 17.0 12.9 65 3.9 W 19 30 10 16 - - 0.0
29/09:30am 18.9 17.1 13.3 70 3.2 W 15 20 8 11 - - 0.0
29/09:00am 18.1 16.1 14.0 77 2.4 W 17 24 9 13 - - 0.0
29/08:30am 16.3 15.0 13.6 84 1.5 W 13 20 7 11 - - 0.0
29/08:00am 15.1 14.5 12.2 83 1.6 W 7 9 4 5 - - 0.0
29/07:30am 16.8 14.6 13.3 80 2.0 WSW 17 26 9 14 - - 0.0
29/07:00am 17.5 15.2 14.6 83 1.7 WSW 20 32 11 17 - - 0.0
29/06:30am 17.4 16.8 15.7 90 1.0 NW 13 17 7 9 - - 0.0
29/06:00am 17.6 16.9 15.4 87 1.3 NW 13 20 7 11 - - 0.0
29/05:30am 17.6 16.7 14.9 84 1.6 NNW 13 17 7 9 - - 0.0
29/05:00am 19.2 17.1 13.6 70 3.2 N 17 30 9 16 - - 0.0
29/04:30am 20.6 17.7 11.0 54 5.3 NNW 17 20 9 11 - - 0.0
29/04:00am 21.5 18.2 9.4 46 6.5 NNW 17 26 9 14 - - 0.0
29/03:30am 22.2 17.9 8.0 40 7.5 NNW 20 28 11 15 - - 0.0
29/03:00am 23.4 17.4 3.4 27 9.8 NNW 24 33 13 18 - - 0.0
29/02:30am 24.1 17.8 1.7 23 10.7 N 24 33 13 18 - - 0.0
29/02:00am 24.7 18.7 0.9 21 11.2 N 22 32 12 17 - - 0.0
29/01:30am 24.7 18.6 0.3 20 11.4 N 22 30 12 16 - - 0.0
29/01:00am 25.2 18.1 -1.6 17 12.1 N 26 39 14 21 - - 0.0
29/12:30am 24.6 19.6 -1.3 18 11.7 N 15 28 8 15 - - 0.0
29/12:00am 22.9 19.2 4.4 30 9.2 NNE 13 19 7 10 - - 0.0
 
Date/Time
CDT
Temp
°C
App
Temp
°C
Dew
Point
°C
Rel
Hum
%
Delta-T
°C
Wind Press
QNH
hPa
Press
MSL
hPa
Rain since
9am
mm
Dir  Spd
km/h
Gust
km/h
Spd
kts
Gust
kts
28/11:30pm 22.6 18.7 5.5 33 8.6 N 15 20 8 11 - - 0.0
28/11:00pm 22.9 19.0 5.3 32 8.9 N 15 22 8 12 - - 0.0
28/10:30pm 22.9 18.9 4.9 31 9.0 N 15 20 8 11 - - 0.0
28/10:00pm 22.4 18.1 3.5 29 9.2 NNE 15 20 8 11 - - 0.0
28/09:30pm 22.7 17.5 3.8 29 9.3 NNE 20 28 11 15 - - 0.0
28/09:00pm 22.1 17.9 3.7 30 9.0 NNE 15 20 8 11 - - 0.0
28/08:30pm 21.6 18.1 3.3 30 8.8 N 11 15 6 8 - - 0.0
28/08:00pm 21.9 18.4 3.6 30 8.9 NNE 11 13 6 7 - - 0.0
28/07:30pm 23.1 19.6 3.6 28 9.5 NNE 11 13 6 7 - - 0.0
28/07:00pm 25.0 20.9 2.4 23 11.0 NNE 13 17 7 9 - - 0.0
28/06:30pm 26.4 21.9 2.3 21 11.8 NNE 15 20 8 11 - - 0.0
28/06:00pm 26.8 21.9 2.0 20 12.1 N 17 22 9 12 - - 0.0
28/05:30pm 27.0 22.2 2.8 21 12.0 N 17 26 9 14 - - 0.0
28/05:00pm 27.6 22.2 2.6 20 12.4 N 20 30 11 16 - - 0.0
28/04:30pm 28.0 22.1 1.5 18 12.9 NNW 22 30 12 16 - - 0.0
28/04:00pm 28.1 22.3 2.3 19 12.8 N 22 30 12 16 - - 0.0
28/03:30pm 29.0 23.2 2.3 18 13.3 NNW 22 33 12 18 - - 0.0
28/03:00pm 28.3 21.8 2.5 19 12.8 NNW 26 35 14 19 - - 0.0
28/02:30pm 28.3 21.9 3.2 20 12.6 N 26 35 14 19 - - 0.0
28/02:00pm 28.1 21.9 2.3 19 12.8 NNW 24 33 13 18 - - 0.0
28/01:30pm 27.9 21.3 2.2 19 12.7 NNW 26 37 14 20 - - 0.0
28/01:00pm 28.0 21.6 3.0 20 12.5 NNW 26 35 14 19 - - 0.0
28/12:30pm 27.2 21.5 4.9 24 11.5 N 24 33 13 18 - - 0.0
28/12:00pm 25.9 19.2 3.8 24 11.1 NNW 28 37 15 20 - - 0.0
28/11:30am 25.4 19.9 4.0 25 10.7 NNW 22 33 12 18 - - 0.0
28/11:00am 24.1 19.2 5.0 29 9.7 NNW 20 32 11 17 - - 0.0
28/10:30am 23.8 19.4 4.7 29 9.6 NNW 17 24 9 13 - - 0.0
28/10:00am 23.3 18.9 4.8 30 9.3 N 17 24 9 13 - - 0.0
28/09:30am 20.6 17.0 6.9 41 7.0 N 15 20 8 11 - - 0.0
28/09:00am 18.8 16.8 8.5 51 5.4 N 9 13 5 7 - - 0.0
28/08:30am 16.4 14.5 9.1 62 3.8 N 9 11 5 6 - - 0.0
28/08:00am 14.0 12.2 9.4 74 2.4 NNE 9 11 5 6 - - 0.0
28/07:30am 13.7 11.8 9.0 73 2.4 NE 9 9 5 5 - - 0.0
28/07:00am 14.8 12.8 8.7 67 3.1 N 9 11 5 6 - - 0.0
28/06:30am 14.5 11.9 9.3 71 2.7 NNE 13 15 7 8 - - 0.0
28/06:00am 14.4 12.1 9.0 70 2.8 NNE 11 15 6 8 - - 0.0
28/05:30am 15.3 13.1 9.4 68 3.1 N 11 13 6 7 - - 0.0
28/05:00am 14.9 12.6 9.1 68 3.0 N 11 13 6 7 - - 0.0
28/04:30am 14.7 12.2 8.2 65 3.3 N 11 13 6 7 - - 0.0
28/04:00am 14.9 12.1 8.4 65 3.3 N 13 15 7 8 - - 0.0
28/03:30am 14.9 12.4 8.4 65 3.3 N 11 13 6 7 - - 0.0
28/03:00am 15.4 13.2 7.9 61 3.8 N 9 13 5 7 - - 0.0
28/02:30am 15.8 13.4 8.5 62 3.7 NNE 11 15 6 8 - - 0.0
28/02:00am 14.9 12.4 8.2 64 3.4 NNE 11 15 6 8 - - 0.0
28/01:30am 15.7 12.5 7.0 56 4.3 NE 13 17 7 9 - - 0.0
28/01:00am 15.4 12.2 5.3 51 4.8 NNE 11 13 6 7 - - 0.0
28/12:30am 15.9 13.3 6.3 53 4.7 NE 9 9 5 5 - - 0.0
28/12:00am 16.3 14.2 6.7 53 4.8 NE 7 9 4 5 - - 0.0
 
Date/Time
CDT
Temp
°C
App
Temp
°C
Dew
Point
°C
Rel
Hum
%
Delta-T
°C
Wind Press
QNH
hPa
Press
MSL
hPa
Rain since
9am
mm
Dir  Spd
km/h
Gust
km/h
Spd
kts
Gust
kts
27/11:30pm 15.7 13.9 8.0 60 3.9 NE 7 7 4 4 - - 0.0
27/11:00pm 15.3 13.2 8.3 63 3.6 NE 9 11 5 6 - - 0.0
27/10:30pm 15.9 14.7 10.4 70 2.9 NE 7 9 4 5 - - 0.0
27/10:00pm 15.5 15.2 13.3 87 1.2 NE 7 9 4 5 - - 0.0
27/09:30pm 13.9 13.2 11.9 88 1.1 NE 7 9 4 5 - - 0.0
27/09:00pm 15.3 15.6 13.3 88 1.1 SSE 4 6 2 3 - - 0.0
27/08:30pm 15.9 16.5 13.0 83 1.6 SW 2 2 1 1 - - 0.0
27/08:00pm 16.7 16.2 12.7 77 2.2 SW 7 9 4 5 - - 0.0
27/07:30pm 18.3 18.0 13.2 72 2.9 SSW 7 9 4 5 - - 0.0
27/07:00pm 20.3 20.0 13.3 64 4.0 SSW 7 9 4 5 - - 0.0
27/06:30pm 21.5 20.3 12.9 58 4.9 S 11 13 6 7 - - 0.0
27/06:00pm 22.1 20.8 12.6 55 5.4 S 11 15 6 8 - - 0.0
27/05:30pm 22.9 20.9 12.8 53 5.8 SSW 15 19 8 10 - - 0.0
27/05:00pm 23.5 22.0 11.9 48 6.6 SSW 11 19 6 10 - - 0.0
27/04:30pm 26.0 23.3 0.6 19 12.0 NNW 4 9 2 5 - - 0.0
27/04:00pm 24.9 21.4 1.1 21 11.3 N 9 17 5 9 - - 0.0
27/03:30pm 24.9 21.6 2.4 23 10.9 N 9 17 5 9 - - 0.0
27/03:00pm 25.3 21.6 2.1 22 11.2 NNW 11 19 6 10 - - 0.0
27/02:30pm 25.0 20.4 1.8 22 11.1 N 15 24 8 13 - - 0.0
27/02:00pm 25.3 21.9 2.1 22 11.2 NNW 9 22 5 12 - - 0.0
27/01:30pm 25.5 22.5 2.2 22 11.3 NNE 7 15 4 8 - - 0.0
27/01:00pm 24.3 20.8 3.6 26 10.2 N 11 19 6 10 - - 0.0
27/12:30pm 23.3 20.9 7.0 35 8.5 NNE 9 17 5 9 - - 0.0
27/12:00pm 22.5 20.0 6.7 36 8.2 NNE 9 15 5 8 - - 0.0
27/11:30am 22.0 18.8 5.0 33 8.5 NE 11 19 6 10 - - 0.0
27/11:00am 20.6 19.1 10.7 53 5.4 NE 9 13 5 7 - - 0.0
27/10:30am 18.9 18.3 12.2 65 3.8 ENE 7 11 4 6 - - 0.0
27/10:00am 17.1 16.5 13.6 80 2.0 E 9 13 5 7 - - 0.0
27/09:30am 14.6 14.4 13.5 93 0.6 ESE 7 9 4 5 - - 0.0
27/09:00am 14.0 13.7 13.4 96 0.3 ESE 7 11 4 6 - - 0.0
27/08:30am 13.7 13.3 13.1 96 0.3 SE 7 11 4 6 - - 0.0
27/08:00am 13.3 12.8 12.7 96 0.3 SSE 7 9 4 5 - - 0.0
27/07:30am 12.9 12.3 12.3 96 0.3 SE 7 11 4 6 - - 0.0
27/07:00am 12.2 11.0 11.6 96 0.3 ESE 9 9 5 5 - - 0.0
27/06:30am 12.8 11.4 12.2 96 0.3 SE 11 17 6 9 - - 0.0
27/06:00am 12.4 11.3 11.9 97 0.3 SE 9 13 5 7 - - 0.0
27/05:30am 11.8 10.5 11.3 97 0.3 SSE 9 13 5 7 - - 0.0
27/05:00am 10.3 8.6 9.7 96 0.3 S 9 13 5 7 - - 0.0
27/04:30am 10.6 9.3 10.0 96 0.3 S 7 9 4 5 - - 0.0
27/04:00am 11.1 9.9 10.3 95 0.4 S 7 9 4 5 - - 0.0
27/03:30am 11.4 9.9 10.5 94 0.5 SSE 9 13 5 7 - - 0.0
27/03:00am 11.8 10.0 10.9 94 0.5 SE 11 15 6 8 - - 0.0
27/02:30am 11.5 9.9 10.2 92 0.7 SSE 9 13 5 7 - - 0.0
27/02:00am 11.7 10.6 10.6 93 0.6 S 7 9 4 5 - - 0.0
27/01:30am 11.6 10.4 10.3 92 0.7 SSE 7 9 4 5 - - 0.0
27/01:00am 11.7 10.7 10.3 91 0.7 SSE 6 7 3 4 - - 0.0
27/12:30am 11.5 9.9 10.1 91 0.7 SE 9 13 5 7 - - 0.0
27/12:00am 11.7 9.7 10.1 90 0.8 SSE 11 13 6 7 - - 0.0
 
Date/Time
CDT
Temp
°C
App
Temp
°C
Dew
Point
°C
Rel
Hum
%
Delta-T
°C
Wind Press
QNH
hPa
Press
MSL
hPa
Rain since
9am
mm
Dir  Spd
km/h
Gust
km/h
Spd
kts
Gust
kts
26/11:30pm 11.5 9.5 10.1 91 0.7 SSE 11 13 6 7 - - 0.0
26/11:00pm 11.2 9.1 9.6 90 0.8 SSE 11 15 6 8 - - 0.0
26/10:30pm 11.6 9.6 10.0 90 0.8 SSE 11 15 6 8 - - 0.0
26/10:00pm 11.0 8.8 9.3 89 0.9 SSE 11 15 6 8 - - 0.0
26/09:30pm 11.9 9.3 9.5 85 1.2 SE 13 17 7 9 - - 0.0
26/09:00pm 12.4 9.9 9.8 84 1.3 SE 13 15 7 8 - - 0.0
26/08:30pm 12.7 10.2 9.7 82 1.5 SE 13 17 7 9 - - 0.0

Other formats

Comma delimited format used in spreadsheet applications
http://www.bom.gov.au/fwo/IDS60801/IDS60801.94807.axf

JavaScript Object Notation format (JSON) in row-major order
http://www.bom.gov.au/fwo/IDS60801/IDS60801.94807.json

Data quality

Most of these data are generated automatically and are frequently updated. Quality checks on data are not normally performed. It is possible for incorrect values to appear. Refer to information at About Latest Weather Observations and please check the disclaimer before using these data.